Hayneville, Alabama
Current Conditions -  °F | °C
As of 10:53 AM on Saturday 22 Nov 2014 (Local Time) from KMGM Reporting Station
Clear Clear  
Wind Chill: 65°   Ceiling: Unl
Heat Index: 65°   Visibility: 10mi
Dew Point: 45°   Wind: 15mph
Humidity: 48%   Direction: 100°E
Pressure: 30.32"   Gusts: NA
Location:  32.18°N, 86.58°W
Report Text: KMGM 221653Z 10013KT 10SM CLR 18/07 A3032 RMK AO2 SLP268 T01830072
Loading
Personal Weather Stations






























Interactive Weather Map New forecast layout! Learn more

10-Day Weather Forecast

Advertisements
Track Severe Weather on mobile